sensor_id;sensor_type;location;lat;lon;timestamp;temperature;humidity
5346;DHT22;2695;49.444;11.054;2023-10-09T00:02:47;13.90;99.90
5346;DHT22;2695;49.444;11.054;2023-10-09T00:05:16;13.90;99.90
5346;DHT22;2695;49.444;11.054;2023-10-09T00:07:50;13.90;99.90
5346;DHT22;2695;49.444;11.054;2023-10-09T00:10:22;13.90;99.90
5346;DHT22;2695;49.444;11.054;2023-10-09T00:12:51;13.80;99.90
5346;DHT22;2695;49.444;11.054;2023-10-09T00:15:19;13.80;99.90
5346;DHT22;2695;49.444;11.054;2023-10-09T00:17:49;13.80;99.90
5346;DHT22;2695;49.444;11.054;2023-10-09T00:20:18;13.90;99.90
5346;DHT22;2695;49.444;11.054;2023-10-09T00:22:51;13.90;99.90
5346;DHT22;2695;49.444;11.054;2023-10-09T00:25:19;14.00;99.90
5346;DHT22;2695;49.444;11.054;2023-10-09T00:27:50;14.10;99.90
5346;DHT22;2695;49.444;11.054;2023-10-09T00:30:19;14.10;99.90
5346;DHT22;2695;49.444;11.054;2023-10-09T00:32:50;14.10;99.90
5346;DHT22;2695;49.444;11.054;2023-10-09T00:35:27;14.00;99.90
5346;DHT22;2695;49.444;11.054;2023-10-09T00:38:06;14.00;99.90
5346;DHT22;2695;49.444;11.054;2023-10-09T00:40:42;14.00;99.90
5346;DHT22;2695;49.444;11.054;2023-10-09T00:43:14;14.00;99.90
5346;DHT22;2695;49.444;11.054;2023-10-09T00:45:43;14.10;99.90
5346;DHT22;2695;49.444;11.054;2023-10-09T00:48:13;14.10;99.90
5346;DHT22;2695;49.444;11.054;2023-10-09T00:50:49;14.00;99.90
5346;DHT22;2695;49.444;11.054;2023-10-09T00:53:22;14.10;99.90
5346;DHT22;2695;49.444;11.054;2023-10-09T00:55:58;14.20;99.90
5346;DHT22;2695;49.444;11.054;2023-10-09T00:58:33;14.10;99.90
5346;DHT22;2695;49.444;11.054;2023-10-09T01:01:02;14.10;99.90
5346;DHT22;2695;49.444;11.054;2023-10-09T01:03:36;14.10;99.90
5346;DHT22;2695;49.444;11.054;2023-10-09T01:06:07;14.20;99.90
5346;DHT22;2695;49.444;11.054;2023-10-09T01:08:43;14.20;99.90
5346;DHT22;2695;49.444;11.054;2023-10-09T01:11:21;14.20;99.90
5346;DHT22;2695;49.444;11.054;2023-10-09T01:13:56;14.20;99.90
5346;DHT22;2695;49.444;11.054;2023-10-09T01:16:39;14.20;99.90
5346;DHT22;2695;49.444;11.054;2023-10-09T01:19:10;14.10;99.90
5346;DHT22;2695;49.444;11.054;2023-10-09T01:21:47;14.10;99.90
5346;DHT22;2695;49.444;11.054;2023-10-09T01:24:18;14.10;99.90
5346;DHT22;2695;49.444;11.054;2023-10-09T01:26:47;14.20;99.90
5346;DHT22;2695;49.444;11.054;2023-10-09T01:29:18;14.20;99.90
5346;DHT22;2695;49.444;11.054;2023-10-09T01:31:48;14.20;99.90
5346;DHT22;2695;49.444;11.054;2023-10-09T01:34:22;14.20;99.90
5346;DHT22;2695;49.444;11.054;2023-10-09T01:37:06;14.30;99.90
5346;DHT22;2695;49.444;11.054;2023-10-09T01:39:40;14.30;99.90
5346;DHT22;2695;49.444;11.054;2023-10-09T01:42:09;14.30;99.90
5346;DHT22;2695;49.444;11.054;2023-10-09T01:44:37;14.40;99.90
5346;DHT22;2695;49.444;11.054;2023-10-09T01:47:10;14.30;99.90
5346;DHT22;2695;49.444;11.054;2023-10-09T01:49:41;14.30;99.90
5346;DHT22;2695;49.444;11.054;2023-10-09T01:52:10;14.30;99.90
5346;DHT22;2695;49.444;11.054;2023-10-09T01:54:44;14.30;99.90
5346;DHT22;2695;49.444;11.054;2023-10-09T01:57:16;14.30;99.90
5346;DHT22;2695;49.444;11.054;2023-10-09T01:59:50;14.30;99.90
5346;DHT22;2695;49.444;11.054;2023-10-09T02:02:20;14.20;99.90
5346;DHT22;2695;49.444;11.054;2023-10-09T02:05:02;14.30;99.90
5346;DHT22;2695;49.444;11.054;2023-10-09T02:07:37;14.20;99.90
5346;DHT22;2695;49.444;11.054;2023-10-09T02:10:20;14.20;99.90
5346;DHT22;2695;49.444;11.054;2023-10-09T02:13:00;14.20;99.90
5346;DHT22;2695;49.444;11.054;2023-10-09T02:15:35;14.10;99.90
5346;DHT22;2695;49.444;11.054;2023-10-09T02:18:19;14.20;99.90
5346;DHT22;2695;49.444;11.054;2023-10-09T02:21:04;14.20;99.90
5346;DHT22;2695;49.444;11.054;2023-10-09T02:23:40;14.30;99.90
5346;DHT22;2695;49.444;11.054;2023-10-09T02:26:15;14.20;99.90
5346;DHT22;2695;49.444;11.054;2023-10-09T02:28:46;14.20;99.90
5346;DHT22;2695;49.444;11.054;2023-10-09T02:31:20;14.20;99.90
5346;DHT22;2695;49.444;11.054;2023-10-09T02:33:50;14.20;99.90
5346;DHT22;2695;49.444;11.054;2023-10-09T02:36:21;14.20;99.90
5346;DHT22;2695;49.444;11.054;2023-10-09T02:38:49;14.20;99.90
5346;DHT22;2695;49.444;11.054;2023-10-09T02:41:21;14.20;99.90
5346;DHT22;2695;49.444;11.054;2023-10-09T02:43:54;14.20;99.90
5346;DHT22;2695;49.444;11.054;2023-10-09T02:46:23;14.20;99.90
5346;DHT22;2695;49.444;11.054;2023-10-09T02:48:57;14.10;99.90
5346;DHT22;2695;49.444;11.054;2023-10-09T02:51:26;14.20;99.90
5346;DHT22;2695;49.444;11.054;2023-10-09T02:54:03;14.10;99.90
5346;DHT22;2695;49.444;11.054;2023-10-09T02:56:55;14.10;99.90
5346;DHT22;2695;49.444;11.054;2023-10-09T02:59:33;14.10;99.90
5346;DHT22;2695;49.444;11.054;2023-10-09T03:02:01;14.20;99.90
5346;DHT22;2695;49.444;11.054;2023-10-09T03:04:29;14.10;99.90
5346;DHT22;2695;49.444;11.054;2023-10-09T03:06:57;14.10;99.90
5346;DHT22;2695;49.444;11.054;2023-10-09T03:09:26;14.10;99.90
5346;DHT22;2695;49.444;11.054;2023-10-09T03:11:58;14.00;99.90
5346;DHT22;2695;49.444;11.054;2023-10-09T03:14:30;14.10;99.90
5346;DHT22;2695;49.444;11.054;2023-10-09T03:16:58;14.10;99.90
5346;DHT22;2695;49.444;11.054;2023-10-09T03:19:27;14.20;99.90
5346;DHT22;2695;49.444;11.054;2023-10-09T03:21:56;14.20;99.90
5346;DHT22;2695;49.444;11.054;2023-10-09T03:24:24;14.20;99.90
5346;DHT22;2695;49.444;11.054;2023-10-09T03:26:54;14.30;99.90
5346;DHT22;2695;49.444;11.054;2023-10-09T03:29:24;14.20;99.90
5346;DHT22;2695;49.444;11.054;2023-10-09T03:31:54;14.20;99.90
5346;DHT22;2695;49.444;11.054;2023-10-09T03:34:23;14.20;99.90
5346;DHT22;2695;49.444;11.054;2023-10-09T03:36:52;14.20;99.90
5346;DHT22;2695;49.444;11.054;2023-10-09T03:39:30;14.20;99.90
5346;DHT22;2695;49.444;11.054;2023-10-09T03:42:05;14.10;99.90
5346;DHT22;2695;49.444;11.054;2023-10-09T03:44:40;14.10;99.90
5346;DHT22;2695;49.444;11.054;2023-10-09T03:47:10;14.10;99.90
5346;DHT22;2695;49.444;11.054;2023-10-09T03:49:38;14.00;99.90
5346;DHT22;2695;49.444;11.054;2023-10-09T03:52:06;14.00;99.90
5346;DHT22;2695;49.444;11.054;2023-10-09T03:54:35;13.90;99.90
5346;DHT22;2695;49.444;11.054;2023-10-09T03:57:05;13.90;99.90
5346;DHT22;2695;49.444;11.054;2023-10-09T03:59:33;13.80;99.90
5346;DHT22;2695;49.444;11.054;2023-10-09T04:02:02;13.90;99.90
5346;DHT22;2695;49.444;11.054;2023-10-09T04:04:31;13.80;99.90
5346;DHT22;2695;49.444;11.054;2023-10-09T04:07:00;13.80;99.90
5346;DHT22;2695;49.444;11.054;2023-10-09T04:09:28;13.70;99.90
5346;DHT22;2695;49.444;11.054;2023-10-09T04:12:06;13.70;99.90
5346;DHT22;2695;49.444;11.054;2023-10-09T04:14:47;13.60;99.90
5346;DHT22;2695;49.444;11.054;2023-10-09T04:17:18;13.60;99.90
5346;DHT22;2695;49.444;11.054;2023-10-09T04:20:03;13.60;99.90
5346;DHT22;2695;49.444;11.054;2023-10-09T04:22:48;13.60;99.90
5346;DHT22;2695;49.444;11.054;2023-10-09T04:25:27;13.60;99.90
5346;DHT22;2695;49.444;11.054;2023-10-09T04:27:57;13.50;99.90
5346;DHT22;2695;49.444;11.054;2023-10-09T04:30:37;13.50;99.90
5346;DHT22;2695;49.444;11.054;2023-10-09T04:33:12;13.50;99.90
5346;DHT22;2695;49.444;11.054;2023-10-09T04:35:55;13.40;99.90
5346;DHT22;2695;49.444;11.054;2023-10-09T04:38:51;13.40;99.90
5346;DHT22;2695;49.444;11.054;2023-10-09T04:41:39;13.30;99.90
5346;DHT22;2695;49.444;11.054;2023-10-09T04:44:19;13.40;99.90
5346;DHT22;2695;49.444;11.054;2023-10-09T04:46:50;13.40;99.90
5346;DHT22;2695;49.444;11.054;2023-10-09T04:49:42;13.30;99.90
5346;DHT22;2695;49.444;11.054;2023-10-09T04:52:17;13.40;99.90
5346;DHT22;2695;49.444;11.054;2023-10-09T04:55:17;13.40;99.90
5346;DHT22;2695;49.444;11.054;2023-10-09T04:57:47;13.30;99.90
5346;DHT22;2695;49.444;11.054;2023-10-09T05:00:29;13.30;99.90
5346;DHT22;2695;49.444;11.054;2023-10-09T05:03:20;13.30;99.90
5346;DHT22;2695;49.444;11.054;2023-10-09T05:10:08;13.20;99.90
5346;DHT22;2695;49.444;11.054;2023-10-09T05:13:30;13.20;99.90
5346;DHT22;2695;49.444;11.054;2023-10-09T05:16:48;13.10;99.90
5346;DHT22;2695;49.444;11.054;2023-10-09T05:19:46;13.10;99.90
5346;DHT22;2695;49.444;11.054;2023-10-09T05:23:03;13.10;99.90
5346;DHT22;2695;49.444;11.054;2023-10-09T05:26:10;13.10;99.90
5346;DHT22;2695;49.444;11.054;2023-10-09T05:29:03;13.10;99.90
5346;DHT22;2695;49.444;11.054;2023-10-09T05:31:46;13.10;99.90
5346;DHT22;2695;49.444;11.054;2023-10-09T05:34:22;13.20;99.90
5346;DHT22;2695;49.444;11.054;2023-10-09T05:37:01;13.10;99.90
5346;DHT22;2695;49.444;11.054;2023-10-09T05:39:47;13.10;99.90
5346;DHT22;2695;49.444;11.054;2023-10-09T05:42:57;13.10;99.90
5346;DHT22;2695;49.444;11.054;2023-10-09T05:45:29;13.10;99.90
5346;DHT22;2695;49.444;11.054;2023-10-09T05:48:12;13.20;99.90
5346;DHT22;2695;49.444;11.054;2023-10-09T05:50:58;13.30;99.90
5346;DHT22;2695;49.444;11.054;2023-10-09T05:53:39;13.40;99.90
5346;DHT22;2695;49.444;11.054;2023-10-09T05:56:38;13.60;99.90
5346;DHT22;2695;49.444;11.054;2023-10-09T05:59:25;13.80;99.90
5346;DHT22;2695;49.444;11.054;2023-10-09T06:02:11;14.00;99.90
5346;DHT22;2695;49.444;11.054;2023-10-09T06:05:22;14.10;99.90
5346;DHT22;2695;49.444;11.054;2023-10-09T06:08:12;14.30;99.90
5346;DHT22;2695;49.444;11.054;2023-10-09T06:10:54;14.50;99.90
5346;DHT22;2695;49.444;11.054;2023-10-09T06:14:14;15.00;99.90
5346;DHT22;2695;49.444;11.054;2023-10-09T06:16:53;15.50;99.90
5346;DHT22;2695;49.444;11.054;2023-10-09T06:19:38;16.10;99.90
5346;DHT22;2695;49.444;11.054;2023-10-09T06:22:10;16.50;99.90
5346;DHT22;2695;49.444;11.054;2023-10-09T06:24:52;16.50;99.90
5346;DHT22;2695;49.444;11.054;2023-10-09T06:27:24;16.40;99.90
5346;DHT22;2695;49.444;11.054;2023-10-09T06:29:53;16.20;99.90
5346;DHT22;2695;49.444;11.054;2023-10-09T06:32:37;16.10;99.90
5346;DHT22;2695;49.444;11.054;2023-10-09T06:35:05;16.00;99.90
5346;DHT22;2695;49.444;11.054;2023-10-09T06:37:43;16.00;99.90
5346;DHT22;2695;49.444;11.054;2023-10-09T06:40:25;15.90;99.90
5346;DHT22;2695;49.444;11.054;2023-10-09T06:43:19;16.00;99.90
5346;DHT22;2695;49.444;11.054;2023-10-09T06:45:55;16.00;99.90
5346;DHT22;2695;49.444;11.054;2023-10-09T06:48:27;16.10;99.90
5346;DHT22;2695;49.444;11.054;2023-10-09T06:51:23;16.30;99.90
5346;DHT22;2695;49.444;11.054;2023-10-09T06:54:21;16.30;99.90
5346;DHT22;2695;49.444;11.054;2023-10-09T06:56:54;16.50;99.90
5346;DHT22;2695;49.444;11.054;2023-10-09T06:59:38;16.60;99.90
5346;DHT22;2695;49.444;11.054;2023-10-09T07:02:33;17.00;99.90
5346;DHT22;2695;49.444;11.054;2023-10-09T07:05:17;17.50;99.90
5346;DHT22;2695;49.444;11.054;2023-10-09T07:07:45;18.10;99.90
5346;DHT22;2695;49.444;11.054;2023-10-09T07:10:22;18.90;99.90
5346;DHT22;2695;49.444;11.054;2023-10-09T07:13:06;19.70;99.90
5346;DHT22;2695;49.444;11.054;2023-10-09T07:15:34;20.10;99.90
5346;DHT22;2695;49.444;11.054;2023-10-09T07:18:20;20.20;99.90
5346;DHT22;2695;49.444;11.054;2023-10-09T07:20:53;20.10;99.90
5346;DHT22;2695;49.444;11.054;2023-10-09T07:23:28;20.10;99.90
5346;DHT22;2695;49.444;11.054;2023-10-09T07:26:04;20.20;99.90
5346;DHT22;2695;49.444;11.054;2023-10-09T07:28:46;20.40;99.90
5346;DHT22;2695;49.444;11.054;2023-10-09T07:31:19;21.00;99.90
5346;DHT22;2695;49.444;11.054;2023-10-09T07:33:54;22.00;99.90
5346;DHT22;2695;49.444;11.054;2023-10-09T07:36:27;23.30;99.90
5346;DHT22;2695;49.444;11.054;2023-10-09T07:39:02;24.40;99.90
5346;DHT22;2695;49.444;11.054;2023-10-09T07:41:40;25.00;99.90
5346;DHT22;2695;49.444;11.054;2023-10-09T07:44:23;25.30;99.30
5346;DHT22;2695;49.444;11.054;2023-10-09T07:47:05;25.30;98.00
5346;DHT22;2695;49.444;11.054;2023-10-09T07:49:45;25.40;97.50
5346;DHT22;2695;49.444;11.054;2023-10-09T07:52:24;26.00;96.40
5346;DHT22;2695;49.444;11.054;2023-10-09T07:54:53;26.20;94.70
5346;DHT22;2695;49.444;11.054;2023-10-09T07:57:28;25.90;94.40
5346;DHT22;2695;49.444;11.054;2023-10-09T08:00:07;25.30;94.60
5346;DHT22;2695;49.444;11.054;2023-10-09T08:02:55;24.80;95.00
5346;DHT22;2695;49.444;11.054;2023-10-09T08:05:29;24.10;95.50
5346;DHT22;2695;49.444;11.054;2023-10-09T08:08:03;23.80;95.80
5346;DHT22;2695;49.444;11.054;2023-10-09T08:17:04;22.50;97.60
5346;DHT22;2695;49.444;11.054;2023-10-09T08:19:38;22.30;98.10
5346;DHT22;2695;49.444;11.054;2023-10-09T08:22:23;22.20;98.30
5346;DHT22;2695;49.444;11.054;2023-10-09T08:25:12;22.30;98.40
5346;DHT22;2695;49.444;11.054;2023-10-09T08:27:56;22.30;98.30
5346;DHT22;2695;49.444;11.054;2023-10-09T08:30:26;22.30;98.60
5346;DHT22;2695;49.444;11.054;2023-10-09T08:33:08;22.40;98.40
5346;DHT22;2695;49.444;11.054;2023-10-09T08:35:56;22.70;98.50
5346;DHT22;2695;49.444;11.054;2023-10-09T08:38:31;23.10;97.90
5346;DHT22;2695;49.444;11.054;2023-10-09T08:41:08;23.60;97.60
5346;DHT22;2695;49.444;11.054;2023-10-09T08:43:51;24.30;97.20
5346;DHT22;2695;49.444;11.054;2023-10-09T08:46:20;25.10;95.10
5346;DHT22;2695;49.444;11.054;2023-10-09T08:48:52;25.70;93.90
5346;DHT22;2695;49.444;11.054;2023-10-09T08:51:35;26.00;92.70
5346;DHT22;2695;49.444;11.054;2023-10-09T08:54:04;25.80;92.60
5346;DHT22;2695;49.444;11.054;2023-10-09T08:56:42;25.30;92.80
5346;DHT22;2695;49.444;11.054;2023-10-09T08:59:28;24.80;93.70
5346;DHT22;2695;49.444;11.054;2023-10-09T09:02:03;24.60;94.40
5346;DHT22;2695;49.444;11.054;2023-10-09T09:04:34;25.00;94.30
5346;DHT22;2695;49.444;11.054;2023-10-09T09:07:03;25.30;93.30
5346;DHT22;2695;49.444;11.054;2023-10-09T09:09:31;25.60;92.90
5346;DHT22;2695;49.444;11.054;2023-10-09T09:12:05;25.70;92.00
5346;DHT22;2695;49.444;11.054;2023-10-09T09:14:38;25.70;91.90
5346;DHT22;2695;49.444;11.054;2023-10-09T09:17:09;26.00;91.70
5346;DHT22;2695;49.444;11.054;2023-10-09T09:19:38;26.80;90.40
5346;DHT22;2695;49.444;11.054;2023-10-09T09:22:06;27.20;88.70
5346;DHT22;2695;49.444;11.054;2023-10-09T09:24:41;27.00;87.80
5346;DHT22;2695;49.444;11.054;2023-10-09T09:27:46;26.40;88.50
5346;DHT22;2695;49.444;11.054;2023-10-09T09:30:23;25.50;90.50
5346;DHT22;2695;49.444;11.054;2023-10-09T09:32:52;24.80;91.80
5346;DHT22;2695;49.444;11.054;2023-10-09T09:35:34;24.20;92.80
5346;DHT22;2695;49.444;11.054;2023-10-09T09:38:03;23.50;94.80
5346;DHT22;2695;49.444;11.054;2023-10-09T09:40:33;22.80;96.80
5346;DHT22;2695;49.444;11.054;2023-10-09T09:43:09;22.40;97.90
5346;DHT22;2695;49.444;11.054;2023-10-09T09:45:48;22.20;98.70
5346;DHT22;2695;49.444;11.054;2023-10-09T09:48:17;21.90;99.90
5346;DHT22;2695;49.444;11.054;2023-10-09T09:50:45;21.70;99.90
5346;DHT22;2695;49.444;11.054;2023-10-09T09:53:15;21.50;99.90
5346;DHT22;2695;49.444;11.054;2023-10-09T09:55:46;21.40;99.90
5346;DHT22;2695;49.444;11.054;2023-10-09T09:58:20;21.40;99.90
5346;DHT22;2695;49.444;11.054;2023-10-09T10:00:51;21.30;99.90
5346;DHT22;2695;49.444;11.054;2023-10-09T10:03:25;21.40;99.90
5346;DHT22;2695;49.444;11.054;2023-10-09T10:05:56;21.50;99.90
5346;DHT22;2695;49.444;11.054;2023-10-09T10:08:25;21.70;99.90
5346;DHT22;2695;49.444;11.054;2023-10-09T10:10:59;21.90;99.90
5346;DHT22;2695;49.444;11.054;2023-10-09T10:14:07;22.10;99.90
5346;DHT22;2695;49.444;11.054;2023-10-09T10:17:02;22.30;99.90
5346;DHT22;2695;49.444;11.054;2023-10-09T10:20:04;22.40;99.90
5346;DHT22;2695;49.444;11.054;2023-10-09T10:22:46;22.40;99.90
5346;DHT22;2695;49.444;11.054;2023-10-09T10:25:32;22.30;99.90
5346;DHT22;2695;49.444;11.054;2023-10-09T10:28:18;22.20;99.90
5346;DHT22;2695;49.444;11.054;2023-10-09T10:30:57;22.10;99.90
5346;DHT22;2695;49.444;11.054;2023-10-09T10:34:03;22.00;99.90
5346;DHT22;2695;49.444;11.054;2023-10-09T10:36:33;22.00;99.90
5346;DHT22;2695;49.444;11.054;2023-10-09T10:39:02;22.00;99.90
5346;DHT22;2695;49.444;11.054;2023-10-09T10:41:34;22.00;99.90
5346;DHT22;2695;49.444;11.054;2023-10-09T10:44:25;21.90;99.90
5346;DHT22;2695;49.444;11.054;2023-10-09T10:47:06;21.80;99.90
5346;DHT22;2695;49.444;11.054;2023-10-09T10:49:50;21.70;99.90
5346;DHT22;2695;49.444;11.054;2023-10-09T10:52:26;21.70;99.90
5346;DHT22;2695;49.444;11.054;2023-10-09T10:55:10;21.70;99.90
5346;DHT22;2695;49.444;11.054;2023-10-09T10:58:01;21.80;99.90
5346;DHT22;2695;49.444;11.054;2023-10-09T11:00:37;22.00;99.90
5346;DHT22;2695;49.444;11.054;2023-10-09T11:03:25;22.00;99.90
5346;DHT22;2695;49.444;11.054;2023-10-09T11:06:03;21.90;99.90
5346;DHT22;2695;49.444;11.054;2023-10-09T11:08:43;21.60;99.90
5346;DHT22;2695;49.444;11.054;2023-10-09T11:11:22;21.20;99.90
5346;DHT22;2695;49.444;11.054;2023-10-09T11:13:50;21.20;99.90
5346;DHT22;2695;49.444;11.054;2023-10-09T11:16:22;21.10;99.90
5346;DHT22;2695;49.444;11.054;2023-10-09T11:19:11;21.20;99.90
5346;DHT22;2695;49.444;11.054;2023-10-09T11:21:59;21.20;99.90
5346;DHT22;2695;49.444;11.054;2023-10-09T11:24:42;21.50;99.90
5346;DHT22;2695;49.444;11.054;2023-10-09T11:27:10;21.70;99.90
5346;DHT22;2695;49.444;11.054;2023-10-09T11:29:48;22.20;99.90
5346;DHT22;2695;49.444;11.054;2023-10-09T11:32:36;22.70;99.90
5346;DHT22;2695;49.444;11.054;2023-10-09T11:35:13;23.10;99.90
5346;DHT22;2695;49.444;11.054;2023-10-09T11:37:55;23.20;99.90
5346;DHT22;2695;49.444;11.054;2023-10-09T11:40:29;22.90;99.90
5346;DHT22;2695;49.444;11.054;2023-10-09T11:43:15;22.60;99.90
5346;DHT22;2695;49.444;11.054;2023-10-09T11:45:43;22.20;99.90
5346;DHT22;2695;49.444;11.054;2023-10-09T11:48:21;22.00;99.90
5346;DHT22;2695;49.444;11.054;2023-10-09T11:50:53;21.90;99.90
5346;DHT22;2695;49.444;11.054;2023-10-09T11:53:22;21.90;99.90
5346;DHT22;2695;49.444;11.054;2023-10-09T11:56:03;21.90;99.90
5346;DHT22;2695;49.444;11.054;2023-10-09T11:58:30;22.00;99.90
5346;DHT22;2695;49.444;11.054;2023-10-09T12:00:58;22.10;99.90
5346;DHT22;2695;49.444;11.054;2023-10-09T12:03:32;22.10;99.90
5346;DHT22;2695;49.444;11.054;2023-10-09T12:06:03;22.10;99.90
5346;DHT22;2695;49.444;11.054;2023-10-09T12:08:33;22.00;99.90
5346;DHT22;2695;49.444;11.054;2023-10-09T12:11:02;21.80;99.90
5346;DHT22;2695;49.444;11.054;2023-10-09T12:13:35;21.50;99.90
5346;DHT22;2695;49.444;11.054;2023-10-09T12:16:05;21.30;99.90
5346;DHT22;2695;49.444;11.054;2023-10-09T12:18:36;21.20;99.90
5346;DHT22;2695;49.444;11.054;2023-10-09T12:21:07;21.10;99.90
5346;DHT22;2695;49.444;11.054;2023-10-09T12:23:42;21.00;99.90
5346;DHT22;2695;49.444;11.054;2023-10-09T12:26:14;20.90;99.90
5346;DHT22;2695;49.444;11.054;2023-10-09T12:28:42;21.00;99.90
5346;DHT22;2695;49.444;11.054;2023-10-09T12:31:13;21.00;99.90
5346;DHT22;2695;49.444;11.054;2023-10-09T12:33:42;21.00;99.90
5346;DHT22;2695;49.444;11.054;2023-10-09T12:36:13;20.90;99.90
5346;DHT22;2695;49.444;11.054;2023-10-09T12:38:48;21.00;99.90
5346;DHT22;2695;49.444;11.054;2023-10-09T12:41:19;21.00;99.90
5346;DHT22;2695;49.444;11.054;2023-10-09T12:43:53;21.10;99.90
5346;DHT22;2695;49.444;11.054;2023-10-09T12:46:22;21.20;99.90
5346;DHT22;2695;49.444;11.054;2023-10-09T12:48:52;21.40;99.90
5346;DHT22;2695;49.444;11.054;2023-10-09T12:51:23;21.50;99.90
5346;DHT22;2695;49.444;11.054;2023-10-09T12:53:57;21.50;99.90
5346;DHT22;2695;49.444;11.054;2023-10-09T12:56:28;21.60;99.90
5346;DHT22;2695;49.444;11.054;2023-10-09T12:59:05;21.50;99.90
5346;DHT22;2695;49.444;11.054;2023-10-09T13:01:34;21.50;99.90
5346;DHT22;2695;49.444;11.054;2023-10-09T13:04:10;21.50;99.90
5346;DHT22;2695;49.444;11.054;2023-10-09T13:06:42;21.60;99.90
5346;DHT22;2695;49.444;11.054;2023-10-09T13:09:12;21.50;99.90
5346;DHT22;2695;49.444;11.054;2023-10-09T13:11:41;21.40;99.90
5346;DHT22;2695;49.444;11.054;2023-10-09T13:14:11;21.20;99.90
5346;DHT22;2695;49.444;11.054;2023-10-09T13:16:44;21.10;99.90
5346;DHT22;2695;49.444;11.054;2023-10-09T13:19:13;20.90;99.90
5346;DHT22;2695;49.444;11.054;2023-10-09T13:21:42;20.80;99.90
5346;DHT22;2695;49.444;11.054;2023-10-09T13:24:11;20.80;99.90
5346;DHT22;2695;49.444;11.054;2023-10-09T13:26:42;20.90;99.90
5346;DHT22;2695;49.444;11.054;2023-10-09T13:29:13;20.90;99.90
5346;DHT22;2695;49.444;11.054;2023-10-09T13:31:49;21.00;99.90
5346;DHT22;2695;49.444;11.054;2023-10-09T13:34:19;21.10;99.90
5346;DHT22;2695;49.444;11.054;2023-10-09T13:36:49;21.00;99.90
5346;DHT22;2695;49.444;11.054;2023-10-09T13:39:20;21.20;99.90
5346;DHT22;2695;49.444;11.054;2023-10-09T13:41:51;21.20;99.40
5346;DHT22;2695;49.444;11.054;2023-10-09T13:44:26;21.30;99.40
5346;DHT22;2695;49.444;11.054;2023-10-09T13:46:54;21.50;99.00
5346;DHT22;2695;49.444;11.054;2023-10-09T13:49:23;21.60;97.80
5346;DHT22;2695;49.444;11.054;2023-10-09T13:51:59;21.70;97.50
5346;DHT22;2695;49.444;11.054;2023-10-09T13:54:28;21.80;97.60
5346;DHT22;2695;49.444;11.054;2023-10-09T13:57:06;21.80;96.50
5346;DHT22;2695;49.444;11.054;2023-10-09T13:59:37;21.90;96.00
5346;DHT22;2695;49.444;11.054;2023-10-09T14:02:09;21.80;95.90
5346;DHT22;2695;49.444;11.054;2023-10-09T14:04:45;21.90;95.60
5346;DHT22;2695;49.444;11.054;2023-10-09T14:07:16;21.80;95.00
5346;DHT22;2695;49.444;11.054;2023-10-09T14:09:45;21.70;95.00
5346;DHT22;2695;49.444;11.054;2023-10-09T14:12:22;21.60;95.20
5346;DHT22;2695;49.444;11.054;2023-10-09T14:14:52;21.50;94.50
5346;DHT22;2695;49.444;11.054;2023-10-09T14:17:22;21.60;94.20
5346;DHT22;2695;49.444;11.054;2023-10-09T14:19:53;21.60;94.70
5346;DHT22;2695;49.444;11.054;2023-10-09T14:22:24;21.60;94.70
5346;DHT22;2695;49.444;11.054;2023-10-09T14:24:54;21.60;95.00
5346;DHT22;2695;49.444;11.054;2023-10-09T14:27:23;21.70;94.40
5346;DHT22;2695;49.444;11.054;2023-10-09T14:29:53;21.70;94.30
5346;DHT22;2695;49.444;11.054;2023-10-09T14:32:23;21.80;92.10
5346;DHT22;2695;49.444;11.054;2023-10-09T14:34:56;21.70;91.00
5346;DHT22;2695;49.444;11.054;2023-10-09T14:37:29;21.70;90.90
5346;DHT22;2695;49.444;11.054;2023-10-09T14:39:58;21.70;91.80
5346;DHT22;2695;49.444;11.054;2023-10-09T14:42:26;21.60;91.00
5346;DHT22;2695;49.444;11.054;2023-10-09T14:44:55;21.60;91.10
5346;DHT22;2695;49.444;11.054;2023-10-09T14:47:23;21.60;91.30
5346;DHT22;2695;49.444;11.054;2023-10-09T14:49:52;21.50;91.10
5346;DHT22;2695;49.444;11.054;2023-10-09T14:52:23;21.50;91.40
5346;DHT22;2695;49.444;11.054;2023-10-09T14:54:52;21.50;90.70
5346;DHT22;2695;49.444;11.054;2023-10-09T14:57:20;21.50;90.10
5346;DHT22;2695;49.444;11.054;2023-10-09T14:59:48;21.50;90.50
5346;DHT22;2695;49.444;11.054;2023-10-09T15:02:16;21.40;90.90
5346;DHT22;2695;49.444;11.054;2023-10-09T15:04:45;21.30;90.90
5346;DHT22;2695;49.444;11.054;2023-10-09T15:07:14;21.30;91.00
5346;DHT22;2695;49.444;11.054;2023-10-09T15:09:57;21.30;91.10
5346;DHT22;2695;49.444;11.054;2023-10-09T15:12:30;21.30;91.00
5346;DHT22;2695;49.444;11.054;2023-10-09T15:14:58;21.20;91.30
5346;DHT22;2695;49.444;11.054;2023-10-09T15:17:27;21.20;91.70
5346;DHT22;2695;49.444;11.054;2023-10-09T15:19:57;21.10;91.80
5346;DHT22;2695;49.444;11.054;2023-10-09T15:22:25;21.10;92.20
5346;DHT22;2695;49.444;11.054;2023-10-09T15:25:03;20.90;92.10
5346;DHT22;2695;49.444;11.054;2023-10-09T15:27:33;20.90;92.40
5346;DHT22;2695;49.444;11.054;2023-10-09T15:30:01;20.90;92.40
5346;DHT22;2695;49.444;11.054;2023-10-09T15:32:29;20.90;92.60
5346;DHT22;2695;49.444;11.054;2023-10-09T15:35:02;20.90;92.90
5346;DHT22;2695;49.444;11.054;2023-10-09T15:37:30;20.80;93.00
5346;DHT22;2695;49.444;11.054;2023-10-09T15:39:58;20.70;93.40
5346;DHT22;2695;49.444;11.054;2023-10-09T15:42:33;20.70;93.50
5346;DHT22;2695;49.444;11.054;2023-10-09T15:45:04;20.60;93.90
5346;DHT22;2695;49.444;11.054;2023-10-09T15:47:33;20.60;94.10
5346;DHT22;2695;49.444;11.054;2023-10-09T15:50:04;20.50;94.30
5346;DHT22;2695;49.444;11.054;2023-10-09T15:52:35;20.40;94.60
5346;DHT22;2695;49.444;11.054;2023-10-09T15:55:05;20.40;94.90
5346;DHT22;2695;49.444;11.054;2023-10-09T15:57:42;20.30;95.10
5346;DHT22;2695;49.444;11.054;2023-10-09T16:00:10;20.20;95.40
5346;DHT22;2695;49.444;11.054;2023-10-09T16:02:45;20.20;95.60
5346;DHT22;2695;49.444;11.054;2023-10-09T16:05:14;20.20;96.40
5346;DHT22;2695;49.444;11.054;2023-10-09T16:07:43;20.10;96.60
5346;DHT22;2695;49.444;11.054;2023-10-09T16:10:12;20.10;96.90
5346;DHT22;2695;49.444;11.054;2023-10-09T16:12:41;20.00;97.10
5346;DHT22;2695;49.444;11.054;2023-10-09T16:15:10;20.00;97.40
5346;DHT22;2695;49.444;11.054;2023-10-09T16:17:41;19.90;97.70
5346;DHT22;2695;49.444;11.054;2023-10-09T16:20:11;19.90;97.80
5346;DHT22;2695;49.444;11.054;2023-10-09T16:22:48;19.80;98.10
5346;DHT22;2695;49.444;11.054;2023-10-09T16:25:17;19.80;98.70
5346;DHT22;2695;49.444;11.054;2023-10-09T16:27:49;19.70;98.70
5346;DHT22;2695;49.444;11.054;2023-10-09T16:30:18;19.70;99.00
5346;DHT22;2695;49.444;11.054;2023-10-09T16:32:47;19.70;99.60
5346;DHT22;2695;49.444;11.054;2023-10-09T16:35:16;19.70;99.90
5346;DHT22;2695;49.444;11.054;2023-10-09T16:37:44;19.60;99.90
5346;DHT22;2695;49.444;11.054;2023-10-09T16:40:16;19.60;99.90
5346;DHT22;2695;49.444;11.054;2023-10-09T16:42:49;19.50;99.90
5346;DHT22;2695;49.444;11.054;2023-10-09T16:45:20;19.40;99.90
5346;DHT22;2695;49.444;11.054;2023-10-09T16:47:49;19.50;99.50
5346;DHT22;2695;49.444;11.054;2023-10-09T16:50:18;19.50;99.90